sensor_id;sensor_type;location;lat;lon;timestamp;pressure;altitude;pressure_sealevel;temperature;humidity
6150;BME280;3106;42.670;23.318;2023-07-13T03:32:08;94690.47;;;22.19;88.62
6150;BME280;3106;42.670;23.318;2023-07-13T03:34:36;94725.69;;;22.33;88.27
6150;BME280;3106;42.670;23.318;2023-07-13T03:37:03;94724.50;;;22.34;88.11
6150;BME280;3106;42.670;23.318;2023-07-13T03:39:30;94722.16;;;22.40;87.00
6150;BME280;3106;42.670;23.318;2023-07-13T03:41:57;94737.66;;;22.46;86.46
6150;BME280;3106;42.670;23.318;2023-07-13T03:44:24;94725.94;;;22.49;85.91
6150;BME280;3106;42.670;23.318;2023-07-13T03:46:51;94721.56;;;22.55;84.20
6150;BME280;3106;42.670;23.318;2023-07-13T03:49:19;94729.72;;;22.55;82.97
6150;BME280;3106;42.670;23.318;2023-07-13T03:51:48;94722.03;;;22.50;83.62
6150;BME280;3106;42.670;23.318;2023-07-13T03:54:21;94713.03;;;22.53;83.49
6150;BME280;3106;42.670;23.318;2023-07-13T03:56:47;94726.88;;;22.66;83.00
6150;BME280;3106;42.670;23.318;2023-07-13T03:59:14;94726.88;;;22.66;81.79
6150;BME280;3106;42.670;23.318;2023-07-13T04:01:46;94726.75;;;22.73;82.10
6150;BME280;3106;42.670;23.318;2023-07-13T04:04:27;94729.13;;;22.71;83.37
6150;BME280;3106;42.670;23.318;2023-07-13T04:06:57;94726.69;;;22.76;84.17
6150;BME280;3106;42.670;23.318;2023-07-13T04:09:26;94704.88;;;22.76;84.13
6150;BME280;3106;42.670;23.318;2023-07-13T04:11:55;94730.31;;;22.96;83.22
6150;BME280;3106;42.670;23.318;2023-07-13T04:14:22;94724.75;;;23.03;83.27
6150;BME280;3106;42.670;23.318;2023-07-13T04:16:49;94721.53;;;23.08;83.41
6150;BME280;3106;42.670;23.318;2023-07-13T04:19:17;94718.38;;;23.13;83.19
6150;BME280;3106;42.670;23.318;2023-07-13T04:21:47;94714.88;;;23.12;82.97
6150;BME280;3106;42.670;23.318;2023-07-13T04:24:14;94736.25;;;23.40;82.88
6150;BME280;3106;42.670;23.318;2023-07-13T04:26:41;94741.25;;;23.45;82.43
6150;BME280;3106;42.670;23.318;2023-07-13T04:29:08;94741.66;;;23.44;82.46
6150;BME280;3106;42.670;23.318;2023-07-13T04:31:35;94748.47;;;23.32;83.44
6150;BME280;3106;42.670;23.318;2023-07-13T04:34:01;94713.19;;;23.22;83.12
6150;BME280;3106;42.670;23.318;2023-07-13T04:36:28;94744.31;;;23.47;82.09
6150;BME280;3106;42.670;23.318;2023-07-13T04:38:56;94755.91;;;23.55;81.85
6150;BME280;3106;42.670;23.318;2023-07-13T04:41:23;94741.34;;;23.61;82.08
6150;BME280;3106;42.670;23.318;2023-07-13T04:43:50;94742.50;;;23.64;82.00
6150;BME280;3106;42.670;23.318;2023-07-13T04:46:17;94746.41;;;23.63;81.99
6150;BME280;3106;42.670;23.318;2023-07-13T04:48:44;94743.59;;;23.66;81.70
6150;BME280;3106;42.670;23.318;2023-07-13T04:51:11;94751.97;;;23.79;80.85
6150;BME280;3106;42.670;23.318;2023-07-13T04:53:38;94753.03;;;23.85;80.96
6150;BME280;3106;42.670;23.318;2023-07-13T04:56:06;94765.06;;;23.91;79.90
6150;BME280;3106;42.670;23.318;2023-07-13T04:58:34;94758.50;;;23.85;80.07
6150;BME280;3106;42.670;23.318;2023-07-13T05:01:01;94763.50;;;23.67;80.77
6150;BME280;3106;42.670;23.318;2023-07-13T05:03:28;94759.41;;;23.78;80.43
6150;BME280;3106;42.670;23.318;2023-07-13T05:05:56;94760.31;;;23.95;79.75
6150;BME280;3106;42.670;23.318;2023-07-13T05:08:23;94763.78;;;23.95;78.99
6150;BME280;3106;42.670;23.318;2023-07-13T05:10:50;94772.69;;;24.19;78.15
6150;BME280;3106;42.670;23.318;2023-07-13T05:13:19;94765.22;;;24.42;76.52
6150;BME280;3106;42.670;23.318;2023-07-13T05:15:48;94771.19;;;24.57;75.97
6150;BME280;3106;42.670;23.318;2023-07-13T05:18:21;94768.19;;;24.70;75.34
6150;BME280;3106;42.670;23.318;2023-07-13T05:20:57;94769.41;;;24.85;73.60
6150;BME280;3106;42.670;23.318;2023-07-13T05:23:24;94769.09;;;25.67;70.35
6150;BME280;3106;42.670;23.318;2023-07-13T05:25:51;94777.13;;;27.66;63.25
6150;BME280;3106;42.670;23.318;2023-07-13T05:28:19;94786.13;;;29.32;56.00
6150;BME280;3106;42.670;23.318;2023-07-13T05:30:46;94789.50;;;30.42;52.07
6150;BME280;3106;42.670;23.318;2023-07-13T05:33:13;94785.00;;;31.25;49.43
6150;BME280;3106;42.670;23.318;2023-07-13T05:35:40;94800.16;;;32.36;45.45
6150;BME280;3106;42.670;23.318;2023-07-13T05:38:07;94792.91;;;33.43;43.49
6150;BME280;3106;42.670;23.318;2023-07-13T05:40:33;94801.53;;;34.48;41.13
6150;BME280;3106;42.670;23.318;2023-07-13T05:43:00;94814.06;;;35.54;38.67
6150;BME280;3106;42.670;23.318;2023-07-13T05:45:28;94804.81;;;36.30;36.80
6150;BME280;3106;42.670;23.318;2023-07-13T05:47:55;94807.22;;;37.28;35.01
6150;BME280;3106;42.670;23.318;2023-07-13T05:50:22;94783.63;;;37.24;34.35
6150;BME280;3106;42.670;23.318;2023-07-13T05:52:49;94817.94;;;38.17;33.94
6150;BME280;3106;42.670;23.318;2023-07-13T05:55:16;94816.38;;;38.27;33.18
6150;BME280;3106;42.670;23.318;2023-07-13T05:57:46;94812.69;;;38.87;32.24
6150;BME280;3106;42.670;23.318;2023-07-13T06:00:13;94819.41;;;39.08;31.81
6150;BME280;3106;42.670;23.318;2023-07-13T06:02:42;94807.66;;;39.26;31.58
6150;BME280;3106;42.670;23.318;2023-07-13T06:05:09;94793.50;;;39.02;31.78
6150;BME280;3106;42.670;23.318;2023-07-13T06:07:36;94776.63;;;38.67;31.96
6150;BME280;3106;42.670;23.318;2023-07-13T06:10:03;94797.97;;;38.70;31.97
6150;BME280;3106;42.670;23.318;2023-07-13T06:12:30;94801.38;;;38.47;31.97
6150;BME280;3106;42.670;23.318;2023-07-13T06:14:59;94797.59;;;38.33;31.12
6150;BME280;3106;42.670;23.318;2023-07-13T06:17:25;94804.81;;;38.80;30.74
6150;BME280;3106;42.670;23.318;2023-07-13T06:19:54;94806.56;;;39.75;29.51
6150;BME280;3106;42.670;23.318;2023-07-13T06:22:20;94815.16;;;40.12;29.33
6150;BME280;3106;42.670;23.318;2023-07-13T06:24:47;94806.66;;;39.93;29.75
6150;BME280;3106;42.670;23.318;2023-07-13T06:27:14;94811.53;;;39.53;30.15
6150;BME280;3106;42.670;23.318;2023-07-13T06:29:41;94810.03;;;39.06;30.30
6150;BME280;3106;42.670;23.318;2023-07-13T06:32:10;94819.31;;;38.84;30.57
6150;BME280;3106;42.670;23.318;2023-07-13T06:34:37;94805.97;;;38.17;32.24
6150;BME280;3106;42.670;23.318;2023-07-13T06:37:06;94807.00;;;38.14;31.95
6150;BME280;3106;42.670;23.318;2023-07-13T06:39:33;94806.53;;;37.50;32.78
6150;BME280;3106;42.670;23.318;2023-07-13T06:42:00;94808.81;;;37.46;32.68
6150;BME280;3106;42.670;23.318;2023-07-13T06:44:27;94796.25;;;36.39;33.49
6150;BME280;3106;42.670;23.318;2023-07-13T06:46:54;94793.19;;;36.01;34.94
6150;BME280;3106;42.670;23.318;2023-07-13T06:49:21;94795.41;;;36.27;34.72
6150;BME280;3106;42.670;23.318;2023-07-13T06:51:48;94788.50;;;36.12;34.99
6150;BME280;3106;42.670;23.318;2023-07-13T06:54:16;94783.25;;;35.58;34.94
6150;BME280;3106;42.670;23.318;2023-07-13T06:56:43;94794.19;;;36.34;33.79
6150;BME280;3106;42.670;23.318;2023-07-13T06:59:09;94789.09;;;36.32;34.56
6150;BME280;3106;42.670;23.318;2023-07-13T07:01:36;94793.81;;;36.57;33.79
6150;BME280;3106;42.670;23.318;2023-07-13T07:04:04;94793.94;;;36.32;34.32
6150;BME280;3106;42.670;23.318;2023-07-13T07:06:30;94805.28;;;36.81;33.93
6150;BME280;3106;42.670;23.318;2023-07-13T07:08:57;94805.94;;;37.35;33.12
6150;BME280;3106;42.670;23.318;2023-07-13T07:11:26;94796.22;;;36.33;34.05
6150;BME280;3106;42.670;23.318;2023-07-13T07:13:53;94785.84;;;36.34;34.71
6150;BME280;3106;42.670;23.318;2023-07-13T07:16:21;94797.47;;;36.91;33.60
6150;BME280;3106;42.670;23.318;2023-07-13T07:18:48;94799.34;;;36.52;33.80
6150;BME280;3106;42.670;23.318;2023-07-13T07:21:14;94794.44;;;36.89;33.72
6150;BME280;3106;42.670;23.318;2023-07-13T07:23:42;94784.09;;;36.00;34.75
6150;BME280;3106;42.670;23.318;2023-07-13T07:26:11;94788.31;;;35.85;35.00
6150;BME280;3106;42.670;23.318;2023-07-13T07:28:39;94779.94;;;35.85;34.87
6150;BME280;3106;42.670;23.318;2023-07-13T07:31:06;94782.66;;;35.48;34.78
6150;BME280;3106;42.670;23.318;2023-07-13T07:33:34;94784.59;;;34.86;35.71
6150;BME280;3106;42.670;23.318;2023-07-13T07:36:00;94776.88;;;34.16;36.70
6150;BME280;3106;42.670;23.318;2023-07-13T07:38:27;94769.47;;;33.93;36.14
6150;BME280;3106;42.670;23.318;2023-07-13T07:40:54;94775.06;;;33.64;37.28
6150;BME280;3106;42.670;23.318;2023-07-13T07:43:21;94770.59;;;33.52;37.11
6150;BME280;3106;42.670;23.318;2023-07-13T07:45:49;94764.69;;;33.01;37.27
6150;BME280;3106;42.670;23.318;2023-07-13T07:48:16;94741.94;;;32.97;38.50
6150;BME280;3106;42.670;23.318;2023-07-13T07:50:43;94767.69;;;33.26;38.40
6150;BME280;3106;42.670;23.318;2023-07-13T07:53:10;94770.91;;;33.39;39.05
6150;BME280;3106;42.670;23.318;2023-07-13T07:55:38;94763.41;;;33.60;38.29
6150;BME280;3106;42.670;23.318;2023-07-13T07:58:05;94769.25;;;33.62;38.28
6150;BME280;3106;42.670;23.318;2023-07-13T08:00:32;94760.34;;;33.72;37.56
6150;BME280;3106;42.670;23.318;2023-07-13T08:03:02;94739.59;;;33.53;37.84
6150;BME280;3106;42.670;23.318;2023-07-13T08:05:29;94738.88;;;33.38;38.28
6150;BME280;3106;42.670;23.318;2023-07-13T08:07:56;94724.44;;;33.05;38.96
6150;BME280;3106;42.670;23.318;2023-07-13T08:10:23;94749.56;;;33.16;38.97
6150;BME280;3106;42.670;23.318;2023-07-13T08:12:50;94737.44;;;33.14;39.17
6150;BME280;3106;42.670;23.318;2023-07-13T08:15:17;94733.91;;;33.13;39.00
6150;BME280;3106;42.670;23.318;2023-07-13T08:17:46;94728.47;;;33.19;39.46
6150;BME280;3106;42.670;23.318;2023-07-13T08:20:14;94716.16;;;33.20;39.16
6150;BME280;3106;42.670;23.318;2023-07-13T08:22:41;94734.41;;;33.26;38.84
6150;BME280;3106;42.670;23.318;2023-07-13T08:25:08;94733.72;;;33.17;39.79
6150;BME280;3106;42.670;23.318;2023-07-13T08:27:35;94730.09;;;32.96;39.77
6150;BME280;3106;42.670;23.318;2023-07-13T08:30:02;94715.47;;;33.10;40.32
6150;BME280;3106;42.670;23.318;2023-07-13T08:32:31;94723.88;;;33.16;39.83
6150;BME280;3106;42.670;23.318;2023-07-13T08:34:58;94729.34;;;33.25;39.00
6150;BME280;3106;42.670;23.318;2023-07-13T08:37:26;94725.72;;;33.53;38.89
6150;BME280;3106;42.670;23.318;2023-07-13T08:39:52;94721.03;;;33.74;38.09
6150;BME280;3106;42.670;23.318;2023-07-13T08:42:33;94713.50;;;33.94;38.15
6150;BME280;3106;42.670;23.318;2023-07-13T08:45:11;94708.44;;;34.13;37.32
6150;BME280;3106;42.670;23.318;2023-07-13T08:47:41;94714.34;;;34.20;37.19
6150;BME280;3106;42.670;23.318;2023-07-13T08:50:13;94719.97;;;34.46;37.43
6150;BME280;3106;42.670;23.318;2023-07-13T08:52:44;94714.03;;;34.58;36.38
6150;BME280;3106;42.670;23.318;2023-07-13T08:55:13;94703.94;;;34.35;36.70
6150;BME280;3106;42.670;23.318;2023-07-13T08:57:43;94721.38;;;34.61;36.57
6150;BME280;3106;42.670;23.318;2023-07-13T09:00:12;94712.19;;;34.50;36.60
6150;BME280;3106;42.670;23.318;2023-07-13T09:02:45;94736.22;;;34.53;36.58
6150;BME280;3106;42.670;23.318;2023-07-13T09:05:14;94734.78;;;34.62;36.31
6150;BME280;3106;42.670;23.318;2023-07-13T09:07:57;94743.31;;;34.59;36.47
6150;BME280;3106;42.670;23.318;2023-07-13T09:10:29;94740.03;;;34.35;37.47
6150;BME280;3106;42.670;23.318;2023-07-13T09:13:11;94744.34;;;34.16;36.72
6150;BME280;3106;42.670;23.318;2023-07-13T09:15:44;94745.09;;;34.56;36.22
6150;BME280;3106;42.670;23.318;2023-07-13T09:18:16;94742.06;;;34.80;35.39
6150;BME280;3106;42.670;23.318;2023-07-13T09:20:48;94742.97;;;34.91;35.26
6150;BME280;3106;42.670;23.318;2023-07-13T09:23:19;94736.97;;;34.73;36.47
6150;BME280;3106;42.670;23.318;2023-07-13T09:25:48;94746.81;;;34.54;36.97
6150;BME280;3106;42.670;23.318;2023-07-13T09:28:23;94738.94;;;34.27;37.14
6150;BME280;3106;42.670;23.318;2023-07-13T09:30:54;94745.94;;;34.23;37.36
6150;BME280;3106;42.670;23.318;2023-07-13T09:33:22;94730.47;;;34.16;37.31
6150;BME280;3106;42.670;23.318;2023-07-13T09:35:50;94735.34;;;34.07;37.34
6150;BME280;3106;42.670;23.318;2023-07-13T09:38:20;94745.88;;;34.17;37.47
6150;BME280;3106;42.670;23.318;2023-07-13T09:40:58;94731.47;;;34.39;37.25
6150;BME280;3106;42.670;23.318;2023-07-13T09:43:26;94739.41;;;34.65;37.19
6150;BME280;3106;42.670;23.318;2023-07-13T09:45:54;94738.00;;;34.55;36.47
6150;BME280;3106;42.670;23.318;2023-07-13T09:48:22;94733.38;;;34.92;36.05
6150;BME280;3106;42.670;23.318;2023-07-13T09:50:54;94723.31;;;35.00;36.32
6150;BME280;3106;42.670;23.318;2023-07-13T09:53:22;94714.28;;;34.80;36.54
6150;BME280;3106;42.670;23.318;2023-07-13T09:55:49;94700.50;;;34.65;36.52
6150;BME280;3106;42.670;23.318;2023-07-13T09:58:18;94709.88;;;34.48;36.67
6150;BME280;3106;42.670;23.318;2023-07-13T10:00:54;94698.44;;;34.41;36.35
6150;BME280;3106;42.670;23.318;2023-07-13T10:03:24;94707.72;;;34.57;36.43
6150;BME280;3106;42.670;23.318;2023-07-13T10:05:52;94698.16;;;34.84;36.52
6150;BME280;3106;42.670;23.318;2023-07-13T10:08:24;94693.78;;;35.03;35.83
6150;BME280;3106;42.670;23.318;2023-07-13T10:10:57;94680.06;;;35.19;36.28
6150;BME280;3106;42.670;23.318;2023-07-13T10:13:27;94689.19;;;35.25;35.23
6150;BME280;3106;42.670;23.318;2023-07-13T10:15:56;94695.00;;;35.58;35.44
6150;BME280;3106;42.670;23.318;2023-07-13T10:18:24;94700.44;;;35.78;34.78
6150;BME280;3106;42.670;23.318;2023-07-13T10:20:54;94706.28;;;35.80;33.47
6150;BME280;3106;42.670;23.318;2023-07-13T10:23:31;94699.53;;;35.92;27.46
6150;BME280;3106;42.670;23.318;2023-07-13T10:25:59;94704.00;;;35.84;26.94
6150;BME280;3106;42.670;23.318;2023-07-13T10:28:30;94698.44;;;35.84;27.17
6150;BME280;3106;42.670;23.318;2023-07-13T10:30:59;94691.13;;;35.87;25.77
6150;BME280;3106;42.670;23.318;2023-07-13T10:33:28;94692.88;;;35.84;25.85
6150;BME280;3106;42.670;23.318;2023-07-13T10:36:00;94679.69;;;35.79;26.39
6150;BME280;3106;42.670;23.318;2023-07-13T10:38:31;94675.97;;;35.88;25.68
6150;BME280;3106;42.670;23.318;2023-07-13T10:41:03;94677.75;;;35.91;26.62
6150;BME280;3106;42.670;23.318;2023-07-13T10:43:34;94682.66;;;36.12;26.00
6150;BME280;3106;42.670;23.318;2023-07-13T10:46:04;94680.47;;;36.32;25.26
6150;BME280;3106;42.670;23.318;2023-07-13T10:48:33;94672.63;;;36.36;25.99
6150;BME280;3106;42.670;23.318;2023-07-13T10:51:03;94671.66;;;36.45;25.85
6150;BME280;3106;42.670;23.318;2023-07-13T10:53:35;94658.97;;;36.44;25.48
6150;BME280;3106;42.670;23.318;2023-07-13T10:56:04;94661.00;;;36.43;25.18
6150;BME280;3106;42.670;23.318;2023-07-13T10:58:38;94653.25;;;36.64;25.39
6150;BME280;3106;42.670;23.318;2023-07-13T11:01:09;94653.91;;;36.48;26.40
6150;BME280;3106;42.670;23.318;2023-07-13T11:03:45;94650.91;;;36.57;26.42
6150;BME280;3106;42.670;23.318;2023-07-13T11:06:17;94640.28;;;36.61;25.30
6150;BME280;3106;42.670;23.318;2023-07-13T11:08:56;94645.63;;;36.64;26.04
6150;BME280;3106;42.670;23.318;2023-07-13T11:11:35;94638.72;;;36.49;26.51
6150;BME280;3106;42.670;23.318;2023-07-13T11:14:04;94641.00;;;36.50;26.14
6150;BME280;3106;42.670;23.318;2023-07-13T11:16:36;94625.81;;;36.51;25.97
6150;BME280;3106;42.670;23.318;2023-07-13T11:22:15;94613.38;;;36.47;26.78
6150;BME280;3106;42.670;23.318;2023-07-13T11:25:01;94625.63;;;36.66;26.40
6150;BME280;3106;42.670;23.318;2023-07-13T11:27:35;94612.44;;;36.66;25.61
6150;BME280;3106;42.670;23.318;2023-07-13T11:30:31;94612.69;;;36.57;26.87
6150;BME280;3106;42.670;23.318;2023-07-13T11:33:19;94617.91;;;36.33;27.25
6150;BME280;3106;42.670;23.318;2023-07-13T11:35:51;94622.50;;;36.31;27.54
6150;BME280;3106;42.670;23.318;2023-07-13T11:38:22;94604.03;;;36.50;27.15
6150;BME280;3106;42.670;23.318;2023-07-13T11:40:54;94606.56;;;36.48;27.53
6150;BME280;3106;42.670;23.318;2023-07-13T11:43:21;94604.53;;;36.48;27.02
6150;BME280;3106;42.670;23.318;2023-07-13T11:45:50;94606.56;;;36.48;26.42
6150;BME280;3106;42.670;23.318;2023-07-13T11:48:23;94602.00;;;36.50;26.61
6150;BME280;3106;42.670;23.318;2023-07-13T11:50:52;94589.81;;;36.31;27.48
6150;BME280;3106;42.670;23.318;2023-07-13T11:53:20;94590.31;;;36.35;27.12
6150;BME280;3106;42.670;23.318;2023-07-13T11:55:47;94593.13;;;36.52;26.22
6150;BME280;3106;42.670;23.318;2023-07-13T11:58:19;94592.41;;;36.57;26.84
6150;BME280;3106;42.670;23.318;2023-07-13T12:00:47;94584.03;;;36.51;27.64
6150;BME280;3106;42.670;23.318;2023-07-13T12:03:20;94589.88;;;36.64;26.86
6150;BME280;3106;42.670;23.318;2023-07-13T12:05:57;94593.44;;;36.76;26.64
6150;BME280;3106;42.670;23.318;2023-07-13T12:08:25;94568.09;;;36.74;25.84
6150;BME280;3106;42.670;23.318;2023-07-13T12:11:04;94578.72;;;36.64;26.77
6150;BME280;3106;42.670;23.318;2023-07-13T12:13:37;94565.56;;;36.59;25.27
6150;BME280;3106;42.670;23.318;2023-07-13T12:16:14;94577.16;;;36.47;25.31
6150;BME280;3106;42.670;23.318;2023-07-13T12:18:43;94572.13;;;36.78;25.91
6150;BME280;3106;42.670;23.318;2023-07-13T12:21:17;94574.94;;;37.06;26.30
6150;BME280;3106;42.670;23.318;2023-07-13T12:23:47;94555.16;;;37.20;25.86
6150;BME280;3106;42.670;23.318;2023-07-13T12:26:18;94550.31;;;37.15;25.45
6150;BME280;3106;42.670;23.318;2023-07-13T12:28:49;94520.44;;;36.77;25.90
6150;BME280;3106;42.670;23.318;2023-07-13T12:31:31;94554.91;;;36.91;25.98
6150;BME280;3106;42.670;23.318;2023-07-13T12:34:00;94549.56;;;37.09;26.35
6150;BME280;3106;42.670;23.318;2023-07-13T12:36:33;94536.63;;;37.17;26.49
6150;BME280;3106;42.670;23.318;2023-07-13T12:39:05;94542.41;;;37.36;26.87
6150;BME280;3106;42.670;23.318;2023-07-13T12:41:37;94508.22;;;37.13;26.38
6150;BME280;3106;42.670;23.318;2023-07-13T12:44:10;94522.41;;;37.21;25.51
6150;BME280;3106;42.670;23.318;2023-07-13T12:46:38;94533.81;;;37.28;26.18
6150;BME280;3106;42.670;23.318;2023-07-13T12:49:07;94528.44;;;37.52;26.31
6150;BME280;3106;42.670;23.318;2023-07-13T12:51:36;94523.47;;;37.86;26.19
6150;BME280;3106;42.670;23.318;2023-07-13T12:54:13;94531.56;;;37.94;26.44
6150;BME280;3106;42.670;23.318;2023-07-13T12:56:42;94511.81;;;37.87;26.88
6150;BME280;3106;42.670;23.318;2023-07-13T12:59:16;94512.50;;;37.98;27.25
6150;BME280;3106;42.670;23.318;2023-07-13T13:01:46;94528.34;;;38.25;27.04
6150;BME280;3106;42.670;23.318;2023-07-13T13:04:14;94522.69;;;38.36;26.13
6150;BME280;3106;42.670;23.318;2023-07-13T13:06:42;94511.75;;;38.38;25.99
6150;BME280;3106;42.670;23.318;2023-07-13T13:09:12;94504.94;;;38.34;25.88
6150;BME280;3106;42.670;23.318;2023-07-13T13:11:39;94487.25;;;38.15;25.20
6150;BME280;3106;42.670;23.318;2023-07-13T13:14:06;94500.72;;;38.16;26.56
6150;BME280;3106;42.670;23.318;2023-07-13T13:16:37;94517.56;;;38.40;26.94
6150;BME280;3106;42.670;23.318;2023-07-13T13:19:13;94476.75;;;38.26;27.22
6150;BME280;3106;42.670;23.318;2023-07-13T13:21:42;94513.50;;;38.41;26.78
6150;BME280;3106;42.670;23.318;2023-07-13T13:24:11;94484.31;;;38.02;25.57
6150;BME280;3106;42.670;23.318;2023-07-13T13:26:40;94490.22;;;37.93;27.21
6150;BME280;3106;42.670;23.318;2023-07-13T13:29:12;94505.84;;;38.07;24.70
6150;BME280;3106;42.670;23.318;2023-07-13T13:31:42;94486.03;;;38.10;24.90
6150;BME280;3106;42.670;23.318;2023-07-13T13:34:10;94506.22;;;38.27;25.33
6150;BME280;3106;42.670;23.318;2023-07-13T13:36:37;94483.63;;;38.25;24.92
6150;BME280;3106;42.670;23.318;2023-07-13T13:39:17;94490.41;;;38.00;24.92
6150;BME280;3106;42.670;23.318;2023-07-13T13:41:45;94490.59;;;38.08;25.24
6150;BME280;3106;42.670;23.318;2023-07-13T13:44:13;94467.34;;;37.94;24.64
6150;BME280;3106;42.670;23.318;2023-07-13T13:46:43;94480.75;;;38.01;24.79
6150;BME280;3106;42.670;23.318;2023-07-13T13:49:13;94482.47;;;38.10;24.19
6150;BME280;3106;42.670;23.318;2023-07-13T13:51:41;94488.06;;;38.10;24.34
6150;BME280;3106;42.670;23.318;2023-07-13T13:54:11;94491.13;;;38.06;24.71
6150;BME280;3106;42.670;23.318;2023-07-13T13:56:38;94488.28;;;38.12;24.91
6150;BME280;3106;42.670;23.318;2023-07-13T13:59:05;94490.25;;;38.22;24.06
6150;BME280;3106;42.670;23.318;2023-07-13T14:01:34;94479.69;;;38.10;23.24
6150;BME280;3106;42.670;23.318;2023-07-13T14:04:03;94479.13;;;38.17;23.49
6150;BME280;3106;42.670;23.318;2023-07-13T14:06:31;94487.00;;;38.18;24.57
6150;BME280;3106;42.670;23.318;2023-07-13T14:08:59;94490.72;;;38.32;24.50
6150;BME280;3106;42.670;23.318;2023-07-13T14:11:26;94484.66;;;38.22;24.65
6150;BME280;3106;42.670;23.318;2023-07-13T14:13:55;94485.41;;;38.23;24.82
6150;BME280;3106;42.670;23.318;2023-07-13T14:16:33;94480.13;;;38.19;24.89
6150;BME280;3106;42.670;23.318;2023-07-13T14:19:00;94484.75;;;38.11;25.16
6150;BME280;3106;42.670;23.318;2023-07-13T14:21:29;94477.38;;;38.08;24.63
6150;BME280;3106;42.670;23.318;2023-07-13T14:23:56;94467.31;;;38.00;24.79
6150;BME280;3106;42.670;23.318;2023-07-13T14:26:25;94476.16;;;38.04;24.60
6150;BME280;3106;42.670;23.318;2023-07-13T14:28:54;94482.00;;;38.00;24.36
6150;BME280;3106;42.670;23.318;2023-07-13T14:31:23;94472.59;;;38.03;24.74
6150;BME280;3106;42.670;23.318;2023-07-13T14:33:50;94460.47;;;37.95;25.06
6150;BME280;3106;42.670;23.318;2023-07-13T14:36:25;94475.00;;;37.83;25.69
6150;BME280;3106;42.670;23.318;2023-07-13T14:38:55;94462.94;;;37.64;26.29
6150;BME280;3106;42.670;23.318;2023-07-13T14:41:22;94473.28;;;37.75;26.13
6150;BME280;3106;42.670;23.318;2023-07-13T14:43:49;94478.81;;;37.80;25.48
6150;BME280;3106;42.670;23.318;2023-07-13T14:46:24;94479.81;;;37.83;25.33
6150;BME280;3106;42.670;23.318;2023-07-13T14:48:58;94476.34;;;37.71;25.43
6150;BME280;3106;42.670;23.318;2023-07-13T14:51:26;94472.03;;;37.70;25.46
6150;BME280;3106;42.670;23.318;2023-07-13T14:53:55;94465.97;;;37.66;25.78
6150;BME280;3106;42.670;23.318;2023-07-13T14:56:22;94463.66;;;37.65;25.87
6150;BME280;3106;42.670;23.318;2023-07-13T14:58:48;94463.91;;;37.72;26.44
6150;BME280;3106;42.670;23.318;2023-07-13T15:01:15;94461.25;;;37.85;26.26
6150;BME280;3106;42.670;23.318;2023-07-13T15:03:45;94459.75;;;37.90;26.90
6150;BME280;3106;42.670;23.318;2023-07-13T15:06:13;94454.94;;;37.85;26.79
6150;BME280;3106;42.670;23.318;2023-07-13T15:08:40;94459.00;;;37.84;27.30
6150;BME280;3106;42.670;23.318;2023-07-13T15:11:09;94455.97;;;37.82;26.82
6150;BME280;3106;42.670;23.318;2023-07-13T15:13:37;94468.41;;;37.81;27.24
6150;BME280;3106;42.670;23.318;2023-07-13T15:16:05;94462.31;;;37.82;27.69
6150;BME280;3106;42.670;23.318;2023-07-13T15:18:37;94461.09;;;37.78;27.83
6150;BME280;3106;42.670;23.318;2023-07-13T15:21:08;94459.34;;;37.69;27.74
6150;BME280;3106;42.670;23.318;2023-07-13T15:23:37;94459.69;;;37.49;27.56
6150;BME280;3106;42.670;23.318;2023-07-13T15:26:04;94469.00;;;37.63;26.89
6150;BME280;3106;42.670;23.318;2023-07-13T15:28:33;94465.97;;;37.66;27.26
6150;BME280;3106;42.670;23.318;2023-07-13T15:31:00;94469.53;;;37.61;27.34
6150;BME280;3106;42.670;23.318;2023-07-13T15:33:29;94463.97;;;37.56;26.91
6150;BME280;3106;42.670;23.318;2023-07-13T15:35:56;94461.25;;;37.45;27.57
6150;BME280;3106;42.670;23.318;2023-07-13T15:38:25;94450.84;;;37.45;27.21
6150;BME280;3106;42.670;23.318;2023-07-13T15:40:53;94458.63;;;37.58;27.66
6150;BME280;3106;42.670;23.318;2023-07-13T15:43:20;94461.47;;;37.41;27.61
6150;BME280;3106;42.670;23.318;2023-07-13T15:45:48;94449.41;;;37.17;27.89
6150;BME280;3106;42.670;23.318;2023-07-13T15:48:18;94450.69;;;37.10;28.54
6150;BME280;3106;42.670;23.318;2023-07-13T15:50:47;94458.31;;;37.10;28.03
6150;BME280;3106;42.670;23.318;2023-07-13T15:53:17;94459.09;;;36.99;28.35
6150;BME280;3106;42.670;23.318;2023-07-13T15:55:46;94460.34;;;37.09;28.42
6150;BME280;3106;42.670;23.318;2023-07-13T15:58:13;94464.13;;;37.12;28.87
6150;BME280;3106;42.670;23.318;2023-07-13T16:00:40;94460.56;;;37.11;28.10
6150;BME280;3106;42.670;23.318;2023-07-13T16:03:09;94463.88;;;37.10;28.75
6150;BME280;3106;42.670;23.318;2023-07-13T16:05:36;94454.47;;;37.18;28.68
6150;BME280;3106;42.670;23.318;2023-07-13T16:08:04;94458.31;;;37.10;27.55
6150;BME280;3106;42.670;23.318;2023-07-13T16:10:33;94454.03;;;36.98;28.72
6150;BME280;3106;42.670;23.318;2023-07-13T16:13:03;94458.06;;;37.02;28.68
6150;BME280;3106;42.670;23.318;2023-07-13T16:15:30;94454.25;;;37.00;29.52
6150;BME280;3106;42.670;23.318;2023-07-13T16:17:57;94450.47;;;36.92;29.70
6150;BME280;3106;42.670;23.318;2023-07-13T16:20:25;94446.19;;;36.85;28.97
6150;BME280;3106;42.670;23.318;2023-07-13T16:22:54;94448.25;;;36.74;29.45
6150;BME280;3106;42.670;23.318;2023-07-13T16:25:23;94455.34;;;36.64;29.28
6150;BME280;3106;42.670;23.318;2023-07-13T16:27:51;94449.50;;;36.73;28.96
6150;BME280;3106;42.670;23.318;2023-07-13T16:30:21;94442.69;;;36.46;29.30
6150;BME280;3106;42.670;23.318;2023-07-13T16:32:50;94432.78;;;36.34;30.20
6150;BME280;3106;42.670;23.318;2023-07-13T16:35:18;94436.59;;;36.26;29.48
6150;BME280;3106;42.670;23.318;2023-07-13T16:37:46;94444.69;;;36.24;29.20
6150;BME280;3106;42.670;23.318;2023-07-13T16:40:24;94445.97;;;36.12;30.77
6150;BME280;3106;42.670;23.318;2023-07-13T16:42:53;94454.28;;;36.01;30.97
6150;BME280;3106;42.670;23.318;2023-07-13T16:45:21;94449.22;;;35.94;31.18
6150;BME280;3106;42.670;23.318;2023-07-13T16:47:49;94451.75;;;35.87;31.56
6150;BME280;3106;42.670;23.318;2023-07-13T16:50:19;94451.97;;;35.72;31.90
6150;BME280;3106;42.670;23.318;2023-07-13T16:52:48;94450.94;;;35.64;31.75
6150;BME280;3106;42.670;23.318;2023-07-13T16:55:17;94448.09;;;35.53;31.25